Nashotah, Wisconsin
Current Conditions -  °F | °C
As of 6:45 PM on Tuesday 25 Nov 2014 (Local Time) from KUES Reporting Station
Overcast Overcast  
Wind Chill: 13°   Ceiling: 1300
Heat Index: 19°   Visibility: 10mi
Dew Point: 16°   Wind: 5mph
Humidity: 86%   Direction: 240°WSW
Pressure: 30.13"   Gusts: NA
Location:  43.1°N, 88.4°W
Report Text: KUES 260045Z 24004KT 10SM OVC013 M07/M09 A3013
Loading
Personal Weather Stations






























Interactive Weather Map New forecast layout! Learn more

10-Day Weather Forecast

Advertisements
Track Severe Weather on mobile